createdAt,value
2019-02-23T00:02:25.411Z,7.40
2019-02-23T00:05:00.686Z,7.30
2019-02-23T00:07:35.845Z,7.30
2019-02-23T00:10:10.913Z,7.20
2019-02-23T00:12:46.074Z,7.20
2019-02-23T00:15:21.360Z,7.20
2019-02-23T00:17:56.660Z,7.10
2019-02-23T00:20:31.800Z,7.10
2019-02-23T00:23:07.055Z,7.00
2019-02-23T00:25:42.363Z,7.00
2019-02-23T00:28:17.603Z,6.90
2019-02-23T00:30:52.756Z,6.90
2019-02-23T00:33:27.988Z,6.80
2019-02-23T00:36:03.288Z,6.80
2019-02-23T00:38:38.524Z,6.80
2019-02-23T00:41:13.686Z,6.70
2019-02-23T00:43:48.916Z,6.70
2019-02-23T00:46:24.204Z,6.70
2019-02-23T00:48:59.505Z,6.60
2019-02-23T00:51:34.757Z,6.60
2019-02-23T00:54:09.961Z,6.60
2019-02-23T00:56:45.172Z,6.60
2019-02-23T00:59:20.445Z,6.50
2019-02-23T01:01:55.580Z,6.50
2019-02-23T01:04:30.725Z,6.50
2019-02-23T01:07:05.951Z,6.50
2019-02-23T01:09:41.122Z,6.50
2019-02-23T01:12:16.520Z,6.50
2019-02-23T01:14:51.804Z,6.50
2019-02-23T01:17:27.025Z,6.40
2019-02-23T01:20:02.149Z,6.40
2019-02-23T01:22:37.415Z,6.40
2019-02-23T01:25:12.643Z,6.40
2019-02-23T01:27:47.939Z,6.40
2019-02-23T01:30:23.172Z,6.40
2019-02-23T01:32:58.319Z,6.30
2019-02-23T01:35:33.489Z,6.30
2019-02-23T01:38:08.781Z,6.30
2019-02-23T01:40:44.040Z,6.30
2019-02-23T01:43:19.184Z,6.30
2019-02-23T01:45:54.336Z,6.30
2019-02-23T01:48:29.488Z,6.20
2019-02-23T01:51:04.709Z,6.20
2019-02-23T01:53:39.933Z,6.20
2019-02-23T01:56:15.288Z,6.20
2019-02-23T01:58:50.489Z,6.10
2019-02-23T02:01:25.766Z,6.10
2019-02-23T02:04:01.065Z,6.10
2019-02-23T02:06:36.371Z,6.10
2019-02-23T02:09:11.602Z,6.00
2019-02-23T02:11:46.770Z,6.00
2019-02-23T02:14:22.022Z,5.90
2019-02-23T02:16:57.253Z,5.90
2019-02-23T02:19:32.453Z,5.90
2019-02-23T02:22:07.708Z,5.90
2019-02-23T02:24:42.932Z,5.80
2019-02-23T02:27:18.102Z,5.80
2019-02-23T02:29:53.273Z,5.80
2019-02-23T02:32:28.495Z,5.70
2019-02-23T02:35:03.685Z,5.70
2019-02-23T02:37:38.999Z,5.60
2019-02-23T02:40:14.168Z,5.60
2019-02-23T02:42:49.404Z,5.50
2019-02-23T02:45:24.563Z,5.50
2019-02-23T02:47:59.870Z,5.50
2019-02-23T02:50:35.078Z,5.40
2019-02-23T02:53:10.241Z,5.40
2019-02-23T02:55:45.442Z,5.40
2019-02-23T02:58:20.667Z,5.30
2019-02-23T03:00:55.861Z,5.30
2019-02-23T03:03:31.080Z,5.20
2019-02-23T03:06:06.224Z,5.20
2019-02-23T03:08:41.517Z,5.20
2019-02-23T03:11:16.728Z,5.20
2019-02-23T03:13:51.971Z,5.20
2019-02-23T03:16:27.190Z,5.20
2019-02-23T03:19:02.404Z,5.10
2019-02-23T03:21:37.575Z,5.10
2019-02-23T03:24:12.816Z,5.10
2019-02-23T03:26:47.957Z,5.10
2019-02-23T03:29:23.198Z,5.10
2019-02-23T03:31:58.510Z,5.00
2019-02-23T03:34:33.718Z,5.00
2019-02-23T03:37:08.926Z,5.00
2019-02-23T03:39:44.225Z,5.00
2019-02-23T03:42:19.365Z,5.00
2019-02-23T03:44:54.606Z,5.00
2019-02-23T03:47:29.883Z,5.00
2019-02-23T03:50:05.304Z,5.00
2019-02-23T03:52:40.504Z,5.00
2019-02-23T03:55:15.717Z,5.00
2019-02-23T03:57:50.844Z,5.10
2019-02-23T04:00:26.003Z,5.10
2019-02-23T04:03:01.301Z,5.10
2019-02-23T04:05:36.505Z,5.10
2019-02-23T04:08:11.693Z,5.10
2019-02-23T04:10:46.911Z,5.10
2019-02-23T04:13:22.122Z,5.10
2019-02-23T04:15:57.290Z,5.00
2019-02-23T04:18:32.492Z,5.00
2019-02-23T04:21:07.717Z,5.00
2019-02-23T04:23:42.937Z,5.00
2019-02-23T04:26:18.219Z,5.00
2019-02-23T04:28:53.354Z,5.00
2019-02-23T04:31:28.542Z,5.00
2019-02-23T04:34:03.830Z,5.00
2019-02-23T04:36:39.050Z,5.00
2019-02-23T04:39:14.260Z,5.00
2019-02-23T04:41:49.554Z,5.00
2019-02-23T04:44:24.764Z,5.00
2019-02-23T04:46:59.993Z,4.90
2019-02-23T04:49:35.134Z,4.90
2019-02-23T04:52:10.436Z,4.90
2019-02-23T04:54:45.726Z,4.90
2019-02-23T04:57:20.896Z,4.90
2019-02-23T04:59:56.096Z,4.80
2019-02-23T05:02:31.405Z,4.80
2019-02-23T05:05:07.341Z,4.80
2019-02-23T05:07:42.636Z,4.80
2019-02-23T05:10:17.836Z,4.70
2019-02-23T05:12:52.995Z,4.80
2019-02-23T05:15:28.209Z,4.70
2019-02-23T05:18:03.523Z,4.70
2019-02-23T05:20:38.803Z,4.70
2019-02-23T05:23:14.058Z,4.60
2019-02-23T05:25:49.240Z,4.60
2019-02-23T05:28:24.490Z,4.50
2019-02-23T05:30:59.760Z,4.50
2019-02-23T05:33:35.519Z,4.50
2019-02-23T05:36:10.828Z,4.40
2019-02-23T05:38:45.957Z,4.40
2019-02-23T05:41:21.160Z,4.40
2019-02-23T05:43:56.381Z,4.30
2019-02-23T05:46:31.518Z,4.30
2019-02-23T05:49:06.663Z,4.30
2019-02-23T05:51:41.872Z,4.20
2019-02-23T05:54:17.091Z,4.20
2019-02-23T05:56:52.226Z,4.20
2019-02-23T05:59:27.389Z,4.10
2019-02-23T06:02:02.620Z,4.10
2019-02-23T06:04:37.868Z,4.10
2019-02-23T06:07:13.001Z,4.10
2019-02-23T06:09:48.224Z,4.10
2019-02-23T06:12:23.445Z,4.00
2019-02-23T06:14:58.680Z,4.00
2019-02-23T06:17:33.847Z,4.00
2019-02-23T06:20:10.229Z,4.00
2019-02-23T06:22:46.879Z,4.00
2019-02-23T06:25:22.310Z,4.00
2019-02-23T06:27:57.600Z,4.00
2019-02-23T06:30:32.881Z,3.90
2019-02-23T06:33:08.009Z,3.90
2019-02-23T06:35:43.251Z,3.90
2019-02-23T06:38:18.473Z,3.90
2019-02-23T06:40:53.706Z,3.90
2019-02-23T06:43:28.916Z,4.00
2019-02-23T06:46:04.132Z,4.00
2019-02-23T06:48:39.271Z,4.00
2019-02-23T06:51:14.560Z,4.00
2019-02-23T06:53:49.798Z,4.00
2019-02-23T06:56:25.073Z,4.00
2019-02-23T06:59:00.197Z,4.10
2019-02-23T07:01:35.549Z,4.10
2019-02-23T07:04:10.891Z,4.10
2019-02-23T07:06:46.207Z,4.10
2019-02-23T07:09:21.481Z,4.20
2019-02-23T07:11:56.774Z,4.20
2019-02-23T07:14:32.524Z,4.20
2019-02-23T07:17:07.689Z,4.30
2019-02-23T07:19:42.325Z,4.30
2019-02-23T07:22:16.838Z,4.30
2019-02-23T07:24:52.032Z,4.40
2019-02-23T07:27:26.611Z,4.50
2019-02-23T07:30:01.224Z,4.50
2019-02-23T07:32:36.381Z,4.50
2019-02-23T07:35:10.937Z,4.60
2019-02-23T07:37:45.540Z,4.70
2019-02-23T07:40:20.135Z,4.70
2019-02-23T07:42:54.684Z,4.70
2019-02-23T07:45:34.245Z,4.80
2019-02-23T07:48:10.973Z,4.80
2019-02-23T07:50:46.232Z,4.90
2019-02-23T07:53:21.400Z,4.90
2019-02-23T07:55:56.546Z,5.00
2019-02-23T07:58:31.744Z,5.10
2019-02-23T08:01:06.968Z,5.10
2019-02-23T08:03:42.136Z,5.20
2019-02-23T08:06:17.358Z,5.30
2019-02-23T08:08:52.662Z,5.40
2019-02-23T08:11:27.878Z,5.50
2019-02-23T08:14:03.185Z,5.60
2019-02-23T08:16:38.482Z,5.70
2019-02-23T08:19:13.653Z,5.70
2019-02-23T08:21:48.952Z,5.80
2019-02-23T08:24:24.130Z,5.90
2019-02-23T08:26:59.266Z,5.90
2019-02-23T08:29:34.447Z,5.90
2019-02-23T08:32:09.688Z,6.00
2019-02-23T08:34:44.887Z,6.00
2019-02-23T08:37:20.176Z,6.00
2019-02-23T08:39:55.640Z,6.10
2019-02-23T08:42:30.959Z,6.10
2019-02-23T08:45:07.130Z,6.20
2019-02-23T08:47:42.264Z,6.20
2019-02-23T08:50:17.476Z,6.30
2019-02-23T08:52:52.615Z,6.40
2019-02-23T08:55:27.933Z,6.40
2019-02-23T08:58:03.076Z,6.50
2019-02-23T09:00:38.236Z,6.60
2019-02-23T09:03:13.440Z,6.70
2019-02-23T09:05:48.613Z,6.70
2019-02-23T09:08:23.913Z,6.90
2019-02-23T09:10:59.168Z,7.00
2019-02-23T09:13:34.338Z,7.10
2019-02-23T09:16:09.575Z,7.10
2019-02-23T09:18:44.881Z,7.30
2019-02-23T09:21:20.191Z,7.40
2019-02-23T09:23:55.430Z,7.50
2019-02-23T09:26:30.781Z,7.60
2019-02-23T09:29:05.978Z,7.70
2019-02-23T09:31:41.273Z,7.80
2019-02-23T09:34:16.582Z,7.90
2019-02-23T09:36:51.820Z,8.00
2019-02-23T09:39:27.122Z,8.10
2019-02-23T09:42:07.415Z,8.30
2019-02-23T09:44:39.157Z,8.30
2019-02-23T09:47:14.313Z,8.40
2019-02-23T09:49:49.541Z,8.50
2019-02-23T09:52:24.773Z,8.60
2019-02-23T09:54:59.912Z,8.70
2019-02-23T09:57:35.166Z,8.80
2019-02-23T10:00:10.839Z,8.90
2019-02-23T10:02:46.007Z,9.00
2019-02-23T10:05:21.185Z,9.10
2019-02-23T10:07:56.406Z,9.20
2019-02-23T10:10:31.612Z,9.30
2019-02-23T10:13:06.773Z,9.40
2019-02-23T10:15:41.997Z,9.50
2019-02-23T10:18:17.236Z,9.60
2019-02-23T10:20:52.368Z,9.70
2019-02-23T10:23:27.532Z,9.80
2019-02-23T10:26:02.675Z,9.90
2019-02-23T10:28:37.997Z,9.90
2019-02-23T10:31:13.234Z,10.00
2019-02-23T10:33:48.540Z,10.10
2019-02-23T10:36:23.684Z,10.20
2019-02-23T10:38:58.997Z,10.20
2019-02-23T10:41:34.161Z,10.30
2019-02-23T10:44:09.387Z,10.40
2019-02-23T10:46:44.704Z,10.40
2019-02-23T10:49:19.962Z,10.50
2019-02-23T10:51:55.204Z,10.60
2019-02-23T10:54:30.512Z,10.70
2019-02-23T10:57:05.735Z,10.70
2019-02-23T10:59:40.958Z,10.80
2019-02-23T11:02:16.248Z,10.90
2019-02-23T11:04:51.491Z,10.90
2019-02-23T11:07:27.320Z,11.00
2019-02-23T11:10:02.632Z,11.10
2019-02-23T11:12:37.860Z,11.10
2019-02-23T11:15:13.217Z,11.10
2019-02-23T11:17:48.450Z,11.10
2019-02-23T11:20:23.981Z,11.10
2019-02-23T11:22:59.215Z,11.20
2019-02-23T11:25:34.761Z,11.20
2019-02-23T11:28:10.312Z,11.20
2019-02-23T11:30:45.579Z,11.20
2019-02-23T11:33:21.202Z,11.30
2019-02-23T11:35:56.369Z,11.30
2019-02-23T11:38:31.582Z,11.40
2019-02-23T11:41:06.976Z,11.40
2019-02-23T11:43:42.130Z,11.50
2019-02-23T11:46:17.452Z,11.50
2019-02-23T11:48:52.654Z,11.60
2019-02-23T11:51:27.956Z,11.60
2019-02-23T11:54:03.173Z,11.60
2019-02-23T11:56:38.940Z,11.70
2019-02-23T11:59:14.149Z,11.70
2019-02-23T12:01:49.389Z,11.80
2019-02-23T12:04:24.610Z,11.80
2019-02-23T12:06:59.777Z,11.90
2019-02-23T12:09:34.989Z,11.90
2019-02-23T12:12:10.237Z,11.90
2019-02-23T12:14:45.456Z,11.90
2019-02-23T12:17:21.912Z,11.80
2019-02-23T12:19:57.045Z,11.90
2019-02-23T12:22:32.268Z,11.80
2019-02-23T12:25:07.609Z,11.80
2019-02-23T12:27:42.858Z,11.80
2019-02-23T12:30:18.148Z,11.80
2019-02-23T12:32:53.553Z,11.80
2019-02-23T12:35:28.696Z,11.70
2019-02-23T12:38:03.930Z,11.70
2019-02-23T12:40:39.152Z,11.70
2019-02-23T12:43:14.314Z,11.60
2019-02-23T12:45:49.449Z,11.60
2019-02-23T12:48:24.680Z,11.50
2019-02-23T12:50:59.984Z,11.50
2019-02-23T12:53:35.160Z,11.50
2019-02-23T12:56:10.385Z,11.50
2019-02-23T12:58:45.680Z,11.40
2019-02-23T13:01:20.877Z,11.40
2019-02-23T13:03:56.027Z,11.40
2019-02-23T13:06:31.244Z,11.40
2019-02-23T13:09:30.910Z,11.40
2019-02-23T13:12:29.864Z,11.40
2019-02-23T13:15:24.464Z,11.40
2019-02-23T13:21:52.697Z,11.40
2019-02-23T13:25:21.188Z,11.40
2019-02-23T13:28:29.180Z,11.30
2019-02-23T13:31:44.468Z,11.30
2019-02-23T13:34:54.515Z,11.20
2019-02-23T13:37:58.550Z,11.10
2019-02-23T13:40:59.678Z,11.10
2019-02-23T13:44:50.407Z,11.10
2019-02-23T13:48:16.255Z,11.10
2019-02-23T13:51:09.418Z,11.10
2019-02-23T13:54:21.687Z,11.10
2019-02-23T13:57:21.680Z,11.10
2019-02-23T14:00:36.506Z,11.10
2019-02-23T14:03:57.672Z,11.10
2019-02-23T14:06:45.984Z,11.10
2019-02-23T14:10:04.917Z,11.10
2019-02-23T14:13:10.583Z,11.20
2019-02-23T14:16:29.905Z,11.20
2019-02-23T14:19:46.174Z,11.30
2019-02-23T14:23:04.268Z,11.40
2019-02-23T14:25:57.093Z,11.50
2019-02-23T14:28:50.506Z,11.50
2019-02-23T14:32:20.993Z,11.50
2019-02-23T14:35:28.821Z,11.60
2019-02-23T14:39:15.757Z,11.60
2019-02-23T14:42:31.837Z,11.50
2019-02-23T14:45:47.631Z,11.40
2019-02-23T14:49:13.062Z,11.30
2019-02-23T14:52:38.534Z,11.20
2019-02-23T14:55:42.613Z,11.10
2019-02-23T14:58:54.465Z,11.00
2019-02-23T15:02:08.795Z,10.90
2019-02-23T15:05:18.861Z,10.70
2019-02-23T15:08:19.172Z,10.70
2019-02-23T15:11:18.640Z,10.60
2019-02-23T15:14:43.282Z,10.50
2019-02-23T15:17:53.866Z,10.40
2019-02-23T15:21:02.664Z,10.30
2019-02-23T15:24:24.818Z,10.20
2019-02-23T15:27:34.344Z,10.10
2019-02-23T15:30:44.308Z,10.00
2019-02-23T15:33:56.200Z,9.90
2019-02-23T15:37:18.681Z,9.80
2019-02-23T15:40:29.020Z,9.70
2019-02-23T15:43:49.132Z,9.60
2019-02-23T15:46:54.034Z,9.60
2019-02-23T15:49:36.291Z,9.50
2019-02-23T15:52:11.549Z,9.40
2019-02-23T15:54:46.714Z,9.30
2019-02-23T15:57:21.878Z,9.20
2019-02-23T15:59:57.199Z,9.20
2019-02-23T16:02:32.339Z,9.20
2019-02-23T16:05:07.550Z,9.10
2019-02-23T16:07:42.778Z,9.10
2019-02-23T16:10:18.149Z,9.00
2019-02-23T16:12:53.332Z,8.90
2019-02-23T16:15:28.591Z,8.90
2019-02-23T16:18:03.747Z,8.80
2019-02-23T16:20:38.968Z,8.70
2019-02-23T16:23:14.113Z,8.70
2019-02-23T16:25:49.432Z,8.60
2019-02-23T16:28:24.637Z,8.60
2019-02-23T16:30:59.928Z,8.50
2019-02-23T16:33:35.081Z,8.40
2019-02-23T16:36:10.297Z,8.40
2019-02-23T16:38:45.500Z,8.30
2019-02-23T16:41:20.732Z,8.20
2019-02-23T16:43:55.830Z,8.10
2019-02-23T16:46:31.082Z,8.10
2019-02-23T16:49:06.281Z,8.00
2019-02-23T16:51:41.448Z,8.00
2019-02-23T16:54:16.664Z,7.90
2019-02-23T16:56:51.909Z,7.80
2019-02-23T16:59:27.076Z,7.70
2019-02-23T17:02:02.224Z,7.70
2019-02-23T17:04:37.417Z,7.60
2019-02-23T17:07:12.596Z,7.50
2019-02-23T17:09:47.825Z,7.50
2019-02-23T17:12:22.981Z,7.40
2019-02-23T17:14:58.351Z,7.40
2019-02-23T17:17:33.612Z,7.30
2019-02-23T17:20:08.752Z,7.20
2019-02-23T17:22:43.988Z,7.20
2019-02-23T17:25:19.278Z,7.10
2019-02-23T17:27:54.426Z,7.10
2019-02-23T17:30:29.650Z,7.10
2019-02-23T17:33:04.961Z,7.00
2019-02-23T17:35:40.178Z,7.00
2019-02-23T17:38:16.431Z,6.90
2019-02-23T17:40:51.997Z,6.90
2019-02-23T17:43:27.334Z,6.90
2019-02-23T17:46:02.613Z,6.80
2019-02-23T17:48:37.819Z,6.80
2019-02-23T17:51:12.985Z,6.70
2019-02-23T17:53:48.296Z,6.70
2019-02-23T17:56:23.432Z,6.60
2019-02-23T17:58:58.664Z,6.60
2019-02-23T18:01:33.914Z,6.60
2019-02-23T18:04:09.161Z,6.60
2019-02-23T18:06:44.312Z,6.50
2019-02-23T18:09:19.517Z,6.50
2019-02-23T18:11:54.801Z,6.50
2019-02-23T18:14:30.416Z,6.40
2019-02-23T18:17:05.565Z,6.40
2019-02-23T18:19:40.723Z,6.40
2019-02-23T18:22:15.954Z,6.40
2019-02-23T18:24:51.202Z,6.30
2019-02-23T18:27:26.519Z,6.30
2019-02-23T18:30:10.597Z,6.30
2019-02-23T18:32:38.733Z,6.20
2019-02-23T18:35:15.237Z,6.20
2019-02-23T18:37:50.559Z,6.20
2019-02-23T18:40:25.817Z,6.10
2019-02-23T18:43:01.091Z,6.10
2019-02-23T18:45:36.288Z,6.10
2019-02-23T18:48:11.568Z,6.00
2019-02-23T18:50:46.923Z,6.00
2019-02-23T18:53:22.129Z,5.90
2019-02-23T18:55:57.456Z,5.90
2019-02-23T18:58:32.757Z,5.90
2019-02-23T19:01:08.091Z,5.80
2019-02-23T19:03:43.410Z,5.80
2019-02-23T19:06:18.590Z,5.80
2019-02-23T19:08:53.808Z,5.80
2019-02-23T19:11:28.973Z,5.80
2019-02-23T19:14:04.112Z,5.80
2019-02-23T19:16:39.264Z,5.80
2019-02-23T19:19:14.404Z,5.80
2019-02-23T19:21:49.725Z,5.70
2019-02-23T19:24:25.020Z,5.70
2019-02-23T19:27:00.239Z,5.70
2019-02-23T19:32:15.388Z,5.70
2019-02-23T19:34:50.581Z,5.70
2019-02-23T19:37:28.505Z,5.60
2019-02-23T19:40:03.880Z,5.60
2019-02-23T19:42:39.134Z,5.60
2019-02-23T19:45:14.381Z,5.60
2019-02-23T19:47:49.687Z,5.60
2019-02-23T19:50:28.528Z,5.60
2019-02-23T19:53:03.818Z,5.60
2019-02-23T19:55:39.020Z,5.60
2019-02-23T19:58:14.237Z,5.60
2019-02-23T20:00:49.587Z,5.60
2019-02-23T20:03:24.885Z,5.70
2019-02-23T20:06:00.115Z,5.70
2019-02-23T20:08:35.319Z,5.70
2019-02-23T20:11:10.457Z,5.70
2019-02-23T20:13:54.314Z,5.70
2019-02-23T20:16:29.451Z,5.70
2019-02-23T20:19:04.717Z,5.80
2019-02-23T20:21:39.918Z,5.80
2019-02-23T20:24:15.133Z,5.80
2019-02-23T20:26:55.610Z,5.80
2019-02-23T20:29:27.192Z,5.80
2019-02-23T20:32:02.482Z,5.80
2019-02-23T20:34:37.700Z,5.80
2019-02-23T20:37:12.889Z,5.80
2019-02-23T20:39:48.125Z,5.80
2019-02-23T20:42:23.309Z,5.80
2019-02-23T20:44:58.553Z,5.80
2019-02-23T20:47:33.772Z,5.80
2019-02-23T20:51:07.801Z,5.80
2019-02-23T20:53:42.929Z,5.70
2019-02-23T20:56:18.249Z,5.70
2019-02-23T20:58:53.449Z,5.70
2019-02-23T21:01:28.612Z,5.70
2019-02-23T21:04:03.920Z,5.70
2019-02-23T21:06:39.193Z,5.70
2019-02-23T21:09:14.392Z,5.70
2019-02-23T21:11:49.649Z,5.70
2019-02-23T21:14:24.773Z,5.70
2019-02-23T21:16:59.880Z,5.60
2019-02-23T21:19:35.093Z,5.60
2019-02-23T21:22:10.336Z,5.60
2019-02-23T21:24:45.548Z,5.60
2019-02-23T21:27:20.698Z,5.60
2019-02-23T21:29:55.984Z,5.60
2019-02-23T21:32:31.265Z,5.60
2019-02-23T21:35:06.777Z,5.60
2019-02-23T21:37:41.929Z,5.50
2019-02-23T21:40:17.154Z,5.50
2019-02-23T21:42:52.293Z,5.50
2019-02-23T21:45:27.420Z,5.50
2019-02-23T21:48:02.649Z,5.50
2019-02-23T21:50:37.848Z,5.50
2019-02-23T21:53:13.140Z,5.40
2019-02-23T21:55:48.261Z,5.40
2019-02-23T21:58:23.485Z,5.40
2019-02-23T22:00:58.686Z,5.40
2019-02-23T22:03:33.892Z,5.40
2019-02-23T22:06:09.080Z,5.40
2019-02-23T22:08:44.297Z,5.40
2019-02-23T22:11:19.492Z,5.30
2019-02-23T22:13:54.767Z,5.30
2019-02-23T22:16:29.896Z,5.30
2019-02-23T22:19:05.112Z,5.30
2019-02-23T22:21:40.459Z,5.30
2019-02-23T22:24:15.740Z,5.30
2019-02-23T22:26:50.902Z,5.30
2019-02-23T22:29:26.142Z,5.20
2019-02-23T22:32:01.272Z,5.20
2019-02-23T22:34:36.553Z,5.20
2019-02-23T22:37:11.813Z,5.20
2019-02-23T22:39:47.081Z,5.20
2019-02-23T22:42:22.205Z,5.20
2019-02-23T22:44:57.418Z,5.20
2019-02-23T22:47:32.684Z,5.20
2019-02-23T22:50:08.082Z,5.20
2019-02-23T22:52:43.309Z,5.20
2019-02-23T22:55:18.533Z,5.10
2019-02-23T22:57:53.813Z,5.10
2019-02-23T23:00:38.040Z,5.10
2019-02-23T23:03:13.168Z,5.10
2019-02-23T23:05:48.457Z,5.10
2019-02-23T23:08:23.664Z,5.10
2019-02-23T23:10:58.907Z,5.10
2019-02-23T23:13:34.122Z,5.00
2019-02-23T23:16:09.269Z,5.00
2019-02-23T23:18:44.469Z,5.00
2019-02-23T23:21:19.610Z,5.00
2019-02-23T23:23:54.750Z,4.90
2019-02-23T23:26:29.974Z,4.90
2019-02-23T23:29:05.172Z,4.90
2019-02-23T23:31:40.475Z,4.90
2019-02-23T23:34:15.601Z,4.80
2019-02-23T23:36:50.809Z,4.80
2019-02-23T23:39:26.008Z,4.80
2019-02-23T23:42:01.225Z,4.70
2019-02-23T23:44:36.369Z,4.70
2019-02-23T23:47:11.508Z,4.70
2019-02-23T23:49:46.724Z,4.70
2019-02-23T23:52:21.952Z,4.70
2019-02-23T23:54:57.143Z,4.60
2019-02-23T23:57:32.368Z,4.60
